COOK1: Arkansas River Nr Coolidge, KS

                                SHEF ID:       COOK1     ARKANSAS R NR COOLIDGE, KS
STATION TYPE:
Regulating: Stage = 8.00, Flow = 2050

PRECIP STAGE STAGE(2) RIV-FLOW WTR-TEMP CONDUCT BAT-LOAD
in ft ft cfs F umho/cm volt
Ccp-Rev Ccp-Rev Ccp-Rev Ccp-Rev Ccp-Rev Ccp-Rev Ccp-Rev
(America/Chicago)
07/01 00:00 0.00 2.36 2.49 43 72.55 6314 13.00
07/01 01:00 0.00 2.37 2.51 44 72.18 6298 12.95
07/01 02:00 0.00 2.37 2.51 44 71.91 6323 12.95
07/01 03:00 0.00 2.37 2.52 44 71.60 6367 12.95
07/01 04:00 0.00 2.40 2.54 46 71.29 6352 12.89
07/01 05:00 0.00 2.39 2.54 45 70.77 6322 12.89
07/01 06:00 0.00 2.39 2.53 45 70.21 6289 12.89
07/01 07:00 0.00 2.39 2.53 45 69.62 6278 12.83
07/01 08:00 0.00 2.38 2.54 44 69.35 6277 12.83
07/01 09:00 0.00 2.41 2.55 47 70.03 6282 12.89
07/01 10:00 0.00 2.40 2.55 46 71.35 6259 13.36
07/01 11:00 0.00 2.40 2.55 46 74.34 6239 13.48
07/01 12:00 0.00 2.41 2.56 47 77.54 6228 13.71
07/01 13:00 0.00 2.41 2.55 47 80.60 6221 13.77
07/01 14:00 0.00 2.40 2.57 46 82.72 6208 13.59
07/01 15:00 0.00 2.41 2.57 47 84.29 6181 13.65
07/01 16:00 0.00 2.42 2.57 47 85.24 6149 13.53
07/01 17:00 0.00 2.42 2.58 47 84.04 6102 13.48
07/01 18:00 0.00 2.43 2.56 48 80.91 6082 13.12
07/01 19:00 0.00 2.43 2.56 48 79.52 6095 13.18
07/01 20:00 0.00 2.42 2.55 47 78.78 6109 13.00
07/01 21:00 0.00 2.40 2.52 46 78.30 6122 13.12
07/01 22:00 0.00 2.39 2.53 45 77.25 6154 13.00
07/01 23:00 ---- ---- ---- ---- ---- ---- ----
Data processed at Tue 02Jul2024 04:30 GMT

Parsing this webpage?

Checkout our new Data API! CWMSDataAPI (CDA)

Timeseries IDs (TSIDs)

TSIDs used from left to right in the data table
COOL.Precip-Inc.Total.1Hour.1Hour.Ccp-Rev
COOL.Stage.Inst.1Hour.0.Ccp-Rev
COOL.Stage-Alt.Inst.1Hour.0.Ccp-Rev
COOL.Flow.Inst.1Hour.0.Ccp-Rev
COOL.Temp-Water.Inst.1Hour.0.Ccp-Rev
COOL.Cond.Inst.1Hour.0.Ccp-Rev
COOL.Volt-Battery Load.Inst.1Hour.0.Ccp-Rev

                            

All information presented herein is the property of the government of the United States of America and may be revised or deleted at any time without prior notice. Dissemination of this information without the expressed written consent of the Public Affairs Office, Tulsa District U.S. Army Corps of Engineers is strictly prohibited. These data are gathered electronically and, as presented, have NOT undergone any form of quality control. These data are NOT guaranteed to be valid or correct.